Jeffersonville, Georgia
Current Conditions -  °F | °C
As of 4:58 AM on Sunday 25 Jan 2015 (Local Time) from KWRB Reporting Station
Clear Clear  
Wind Chill: 33°   Ceiling: Unl
Heat Index: 33°   Visibility: 10mi
Dew Point: 30°   Wind: 3mph
Humidity: 90%   Direction: 150°SSE
Pressure: 29.97"   Gusts: NA
Location:  32.69°N, 83.35°W
Report Text: KWRB 250958Z AUTO 15003KT 10SM CLR 00/M01 A2997 RMK AO2 SLP153 T00041011 $
Loading
Personal Weather Stations






























Interactive Weather Map New forecast layout! Learn more

10-Day Weather Forecast

Advertisements
Track Severe Weather on mobile